CST,Max TemperatureF,Mean TemperatureF,Min TemperatureF,Max Dew PointF,MeanDew PointF,Min DewpointF,Max Humidity, Mean Humidity, Min Humidity, Max Sea Level PressureIn, Mean Sea Level PressureIn, Min Sea Level PressureIn, Max VisibilityMiles, Mean VisibilityMiles, Min VisibilityMiles, Max Wind SpeedMPH, Mean Wind SpeedMPH, Max Gust SpeedMPH,PrecipitationIn, CloudCover, Events, WindDirDegrees
2014-1-1,3,1,-2,-2,-5,-8,87,80,72,30.51,30.39,30.14,10,6,2,10,2,13,0.02,8,Snow,53
2014-1-2,16,-1,-18,12,-1,-22,100,86,72,30.49,30.20,29.75,10,9,2,13,3,17,0.01,3,,167
2014-1-3,41,24,7,34,19,1,96,85,73,30.04,29.54,29.19,10,7,0,32,15,41,0.06,7,Fog-Rain-Snow,326
2014-1-4,7,-2,-11,-1,-13,-18,83,71,58,30.49,30.36,30.05,10,10,10,26,11,30,0.00,2,,300
2014-1-5,-8,-15,-22,-17,-25,-31,72,64,55,30.84,30.63,30.33,10,8,2,25,16,33,T,6,Snow,313
2014-1-6,2,-11,-25,-3,-16,-30,87,72,57,30.71,30.37,29.98,10,8,2,12,5,14,0.04,5,Snow,211
2014-1-7,4,-1,-7,0,-5,-11,87,80,72,30.38,30.20,29.91,10,10,9,12,5,14,T,7,Snow,11
2014-1-8,21,6,-9,16,1,-14,80,75,69,30.39,30.14,29.85,10,10,10,13,6,16,0.01,7,,128
2014-1-9,33,30,27,24,19,14,92,78,64,29.82,29.63,29.49,10,10,10,9,4,,0.00,3,,207
2014-1-10,33,24,14,24,18,11,84,72,59,29.72,29.57,29.47,10,10,10,21,9,25,0.00,3,,251
2014-1-11,42,25,8,33,19,6,92,77,61,29.83,29.56,29.25,10,10,10,21,8,26,T,2,Rain,204
2014-1-12,41,30,18,30,23,15,81,70,59,29.77,29.48,29.25,10,10,10,26,13,34,0.00,3,,274
2014-1-13,36,23,10,31,21,8,92,81,70,30.01,29.65,29.48,10,8,1,33,13,44,0.02,5,Snow,284
2014-1-14,25,20,15,17,13,6,84,70,56,30.38,30.26,30.02,10,10,10,33,12,41,0.00,4,,343
2014-1-15,42,32,22,30,25,18,88,73,57,30.08,29.77,29.66,10,10,10,46,21,62,0.00,3,,266
2014-1-16,43,31,18,22,15,8,77,64,50,30.34,30.19,29.84,10,10,6,40,20,52,T,1,Snow,317
2014-1-17,39,30,21,29,23,17,84,60,36,30.19,29.93,29.77,10,10,10,25,12,33,0.00,2,,237
2014-1-18,39,34,29,28,26,23,82,73,64,30.14,29.97,29.73,10,10,10,30,14,38,0.00,2,,267
2014-1-19,41,37,32,28,26,24,75,67,59,29.91,29.76,29.61,10,10,10,22,14,32,0.00,1,,267
2014-1-20,33,17,1,27,3,-7,79,73,66,30.61,30.34,29.87,10,9,4,40,14,52,T,5,Snow,325
2014-1-21,27,16,5,20,14,0,84,76,67,30.40,30.16,29.96,10,10,10,31,13,38,0.00,6,,300
2014-1-22,23,6,-12,17,-6,-17,81,69,56,30.85,30.60,30.23,10,10,7,30,11,37,T,3,Snow,22
2014-1-23,34,11,-13,26,2,-17,86,75,63,30.84,30.46,30.02,10,10,9,22,9,26,0.00,3,,223
2014-1-24,41,36,30,33,30,25,85,78,70,30.05,29.94,29.81,10,10,8,25,17,34,T,7,Rain,295
2014-1-25,46,36,26,33,28,24,92,75,58,30.11,29.84,29.56,10,9,3,24,9,31,T,7,Rain-Snow,351
2014-1-26,37,15,-7,31,2,-16,84,70,56,30.58,30.00,29.54,10,6,0,45,24,56,0.02,6,Fog-Snow,336
2014-1-27,1,-6,-14,-12,-16,-19,72,63,53,30.63,30.60,30.57,10,10,10,17,8,22,0.00,0,,319
2014-1-28,18,4,-11,2,-7,-17,79,63,47,30.56,30.29,29.89,10,10,10,16,7,21,0.00,0,,224
2014-1-29,22,13,4,13,7,-2,83,73,62,29.84,29.70,29.60,10,10,10,23,11,30,T,4,,327
2014-1-30,9,-1,-11,0,-8,-16,79,68,56,30.15,30.04,29.81,10,10,5,21,11,26,T,5,,315
2014-1-31,20,7,-7,7,-3,-11,87,69,51,30.11,29.95,29.75,10,10,4,28,11,35,T,3,Snow,261